sensor_id;sensor_type;location;lat;lon;timestamp;pressure;altitude;pressure_sealevel;temperature;humidity
50434;BME280;36361;38.954;-9.002;2023-03-01T00:00:39;101205.22;;;9.22;79.81
50434;BME280;36361;38.954;-9.002;2023-03-01T00:01:40;101207.88;;;9.36;77.39
50434;BME280;36361;38.954;-9.002;2023-03-01T00:02:41;101211.00;;;9.33;77.35
50434;BME280;36361;38.954;-9.002;2023-03-01T00:03:42;101203.09;;;9.17;78.21
50434;BME280;36361;38.954;-9.002;2023-03-01T00:04:43;101206.19;;;9.35;78.14
50434;BME280;36361;38.954;-9.002;2023-03-01T00:05:45;101217.81;;;9.51;76.20
50434;BME280;36361;38.954;-9.002;2023-03-01T00:06:47;101212.75;;;9.69;74.42
50434;BME280;36361;38.954;-9.002;2023-03-01T00:07:49;101218.53;;;9.87;73.53
50434;BME280;36361;38.954;-9.002;2023-03-01T00:08:53;101221.53;;;9.92;72.35
50434;BME280;36361;38.954;-9.002;2023-03-01T00:09:54;101221.25;;;9.87;72.76
50434;BME280;36361;38.954;-9.002;2023-03-01T00:12:08;101209.50;;;9.80;73.23
50434;BME280;36361;38.954;-9.002;2023-03-01T00:13:10;101209.38;;;9.67;74.14
50434;BME280;36361;38.954;-9.002;2023-03-01T00:14:11;101200.59;;;9.65;74.75
50434;BME280;36361;38.954;-9.002;2023-03-01T00:15:12;101217.16;;;9.70;73.83
50434;BME280;36361;38.954;-9.002;2023-03-01T00:16:22;101208.47;;;9.53;73.15
50434;BME280;36361;38.954;-9.002;2023-03-01T00:17:24;101215.66;;;9.67;74.95
50434;BME280;36361;38.954;-9.002;2023-03-01T00:18:25;101210.44;;;9.66;74.15
50434;BME280;36361;38.954;-9.002;2023-03-01T00:19:26;101204.84;;;9.74;74.00
50434;BME280;36361;38.954;-9.002;2023-03-01T00:20:26;101209.44;;;10.02;69.65
50434;BME280;36361;38.954;-9.002;2023-03-01T00:21:28;101200.25;;;10.03;71.70
50434;BME280;36361;38.954;-9.002;2023-03-01T00:22:29;101200.72;;;10.06;70.79
50434;BME280;36361;38.954;-9.002;2023-03-01T00:23:30;101198.06;;;10.19;67.30
50434;BME280;36361;38.954;-9.002;2023-03-01T00:24:31;101203.16;;;10.29;66.36
50434;BME280;36361;38.954;-9.002;2023-03-01T00:25:32;101209.31;;;10.10;69.93
50434;BME280;36361;38.954;-9.002;2023-03-01T00:26:33;101210.19;;;10.17;70.99
50434;BME280;36361;38.954;-9.002;2023-03-01T00:27:34;101209.41;;;10.23;65.51
50434;BME280;36361;38.954;-9.002;2023-03-01T00:28:35;101206.94;;;10.28;65.13
50434;BME280;36361;38.954;-9.002;2023-03-01T00:29:36;101212.78;;;10.25;66.16
50434;BME280;36361;38.954;-9.002;2023-03-01T00:30:37;101214.94;;;9.80;68.08
50434;BME280;36361;38.954;-9.002;2023-03-01T00:31:38;101212.25;;;9.59;71.18
50434;BME280;36361;38.954;-9.002;2023-03-01T00:32:39;101213.63;;;9.48;72.11
50434;BME280;36361;38.954;-9.002;2023-03-01T00:33:41;101214.59;;;9.40;73.14
50434;BME280;36361;38.954;-9.002;2023-03-01T00:34:42;101219.13;;;9.33;73.79
50434;BME280;36361;38.954;-9.002;2023-03-01T00:35:54;101209.97;;;9.34;72.97
50434;BME280;36361;38.954;-9.002;2023-03-01T00:36:55;101214.78;;;9.39;73.16
50434;BME280;36361;38.954;-9.002;2023-03-01T00:38:06;101214.34;;;9.35;71.75
50434;BME280;36361;38.954;-9.002;2023-03-01T00:39:11;101213.38;;;9.43;72.04
50434;BME280;36361;38.954;-9.002;2023-03-01T00:40:13;101213.19;;;9.45;71.55
50434;BME280;36361;38.954;-9.002;2023-03-01T00:41:18;101214.47;;;9.49;72.08
50434;BME280;36361;38.954;-9.002;2023-03-01T00:42:19;101208.59;;;9.45;72.25
50434;BME280;36361;38.954;-9.002;2023-03-01T00:43:20;101211.00;;;9.33;71.32
50434;BME280;36361;38.954;-9.002;2023-03-01T00:44:21;101210.06;;;9.48;69.93
50434;BME280;36361;38.954;-9.002;2023-03-01T00:45:24;101207.97;;;9.50;69.49
50434;BME280;36361;38.954;-9.002;2023-03-01T00:46:26;101213.31;;;9.36;70.55
50434;BME280;36361;38.954;-9.002;2023-03-01T00:47:29;101212.91;;;9.39;70.08
50434;BME280;36361;38.954;-9.002;2023-03-01T00:48:30;101208.13;;;9.41;68.12
50434;BME280;36361;38.954;-9.002;2023-03-01T00:49:31;101214.34;;;9.35;69.34
50434;BME280;36361;38.954;-9.002;2023-03-01T00:50:32;101204.69;;;9.54;71.04
50434;BME280;36361;38.954;-9.002;2023-03-01T00:51:33;101205.81;;;9.38;68.49
50434;BME280;36361;38.954;-9.002;2023-03-01T00:52:34;101214.09;;;9.52;67.43
50434;BME280;36361;38.954;-9.002;2023-03-01T00:53:36;101209.81;;;9.43;68.41
50434;BME280;36361;38.954;-9.002;2023-03-01T00:54:37;101218.47;;;9.53;68.19
50434;BME280;36361;38.954;-9.002;2023-03-01T00:55:38;101216.84;;;9.58;67.85
50434;BME280;36361;38.954;-9.002;2023-03-01T00:56:45;101212.66;;;9.56;68.39
50434;BME280;36361;38.954;-9.002;2023-03-01T00:57:46;101220.28;;;9.46;69.24
50434;BME280;36361;38.954;-9.002;2023-03-01T00:58:49;101220.41;;;9.37;70.55
50434;BME280;36361;38.954;-9.002;2023-03-01T00:59:51;101220.75;;;9.28;71.92
50434;BME280;36361;38.954;-9.002;2023-03-01T01:00:52;101221.72;;;9.20;72.43
50434;BME280;36361;38.954;-9.002;2023-03-01T01:01:54;101223.13;;;9.16;73.96
50434;BME280;36361;38.954;-9.002;2023-03-01T01:02:56;101216.56;;;8.89;76.51
50434;BME280;36361;38.954;-9.002;2023-03-01T01:04:08;101216.94;;;8.86;77.11
50434;BME280;36361;38.954;-9.002;2023-03-01T01:05:10;101211.13;;;8.53;79.20
50434;BME280;36361;38.954;-9.002;2023-03-01T01:06:24;101213.38;;;8.35;79.06
50434;BME280;36361;38.954;-9.002;2023-03-01T01:07:27;101213.28;;;8.43;81.00
50434;BME280;36361;38.954;-9.002;2023-03-01T01:08:31;101216.75;;;8.37;79.40
50434;BME280;36361;38.954;-9.002;2023-03-01T01:09:32;101212.06;;;8.45;78.99
50434;BME280;36361;38.954;-9.002;2023-03-01T01:10:34;101210.84;;;8.48;79.28
50434;BME280;36361;38.954;-9.002;2023-03-01T01:11:36;101202.59;;;8.56;77.87
50434;BME280;36361;38.954;-9.002;2023-03-01T01:12:36;101201.31;;;8.52;78.29
50434;BME280;36361;38.954;-9.002;2023-03-01T01:13:38;101212.41;;;8.57;77.76
50434;BME280;36361;38.954;-9.002;2023-03-01T01:14:39;101203.34;;;8.50;78.08
50434;BME280;36361;38.954;-9.002;2023-03-01T01:15:40;101205.06;;;8.51;78.57
50434;BME280;36361;38.954;-9.002;2023-03-01T01:16:41;101203.78;;;8.68;77.21
50434;BME280;36361;38.954;-9.002;2023-03-01T01:17:43;101210.19;;;8.61;77.21
50434;BME280;36361;38.954;-9.002;2023-03-01T01:18:44;101210.63;;;8.49;77.86
50434;BME280;36361;38.954;-9.002;2023-03-01T01:19:45;101202.53;;;8.35;78.94
50434;BME280;36361;38.954;-9.002;2023-03-01T01:20:46;101210.16;;;8.16;80.00
50434;BME280;36361;38.954;-9.002;2023-03-01T01:21:47;101211.56;;;8.12;80.85
50434;BME280;36361;38.954;-9.002;2023-03-01T01:22:48;101212.78;;;8.24;80.34
50434;BME280;36361;38.954;-9.002;2023-03-01T01:23:50;101215.59;;;8.16;79.97
50434;BME280;36361;38.954;-9.002;2023-03-01T01:24:57;101210.72;;;8.26;80.14
50434;BME280;36361;38.954;-9.002;2023-03-01T01:26:23;101211.56;;;8.12;78.90
50434;BME280;36361;38.954;-9.002;2023-03-01T01:27:25;101214.47;;;8.25;77.58
50434;BME280;36361;38.954;-9.002;2023-03-01T01:28:26;101216.75;;;8.37;76.66
50434;BME280;36361;38.954;-9.002;2023-03-01T01:29:27;101218.97;;;8.48;75.89
50434;BME280;36361;38.954;-9.002;2023-03-01T01:30:28;101222.63;;;8.55;75.00
50434;BME280;36361;38.954;-9.002;2023-03-01T01:31:29;101215.78;;;8.59;74.67
50434;BME280;36361;38.954;-9.002;2023-03-01T01:32:31;101225.06;;;8.35;77.58
50434;BME280;36361;38.954;-9.002;2023-03-01T01:33:38;101223.91;;;8.15;80.73
50434;BME280;36361;38.954;-9.002;2023-03-01T01:34:40;101231.44;;;7.90;82.62
50434;BME280;36361;38.954;-9.002;2023-03-01T01:35:41;101225.19;;;7.89;81.38
50434;BME280;36361;38.954;-9.002;2023-03-01T01:37:03;101220.53;;;7.98;80.28
50434;BME280;36361;38.954;-9.002;2023-03-01T01:38:08;101205.88;;;8.07;77.80
50434;BME280;36361;38.954;-9.002;2023-03-01T01:39:09;101213.16;;;8.07;78.42
50434;BME280;36361;38.954;-9.002;2023-03-01T01:40:14;101211.91;;;7.94;79.15
50434;BME280;36361;38.954;-9.002;2023-03-01T01:41:17;101213.41;;;7.82;79.33
50434;BME280;36361;38.954;-9.002;2023-03-01T01:42:18;101214.06;;;7.99;77.84
50434;BME280;36361;38.954;-9.002;2023-03-01T01:43:27;101213.13;;;7.92;78.21
50434;BME280;36361;38.954;-9.002;2023-03-01T01:44:29;101199.78;;;8.05;78.35
50434;BME280;36361;38.954;-9.002;2023-03-01T01:45:33;101198.00;;;8.12;78.17
50434;BME280;36361;38.954;-9.002;2023-03-01T01:46:37;101200.28;;;8.23;76.74
50434;BME280;36361;38.954;-9.002;2023-03-01T01:47:39;101198.69;;;8.14;77.08
50434;BME280;36361;38.954;-9.002;2023-03-01T01:48:46;101208.94;;;8.04;77.74
50434;BME280;36361;38.954;-9.002;2023-03-01T01:49:52;101212.41;;;7.98;79.73
50434;BME280;36361;38.954;-9.002;2023-03-01T01:50:57;101207.59;;;7.85;81.30
50434;BME280;36361;38.954;-9.002;2023-03-01T01:52:10;101204.38;;;7.52;82.26
50434;BME280;36361;38.954;-9.002;2023-03-01T01:53:16;101201.28;;;7.55;82.63
50434;BME280;36361;38.954;-9.002;2023-03-01T01:54:22;101195.91;;;7.85;80.44
50434;BME280;36361;38.954;-9.002;2023-03-01T01:55:27;101184.41;;;7.68;81.26
50434;BME280;36361;38.954;-9.002;2023-03-01T01:56:29;101193.28;;;7.77;81.08
50434;BME280;36361;38.954;-9.002;2023-03-01T01:57:37;101198.25;;;7.73;81.47
50434;BME280;36361;38.954;-9.002;2023-03-01T01:58:40;101199.34;;;7.64;81.71
50434;BME280;36361;38.954;-9.002;2023-03-01T01:59:45;101195.56;;;7.88;81.14
50434;BME280;36361;38.954;-9.002;2023-03-01T02:00:48;101191.59;;;7.76;81.28
50434;BME280;36361;38.954;-9.002;2023-03-01T02:01:51;101193.56;;;7.67;81.29
50434;BME280;36361;38.954;-9.002;2023-03-01T02:03:07;101198.13;;;7.66;82.35
50434;BME280;36361;38.954;-9.002;2023-03-01T02:04:09;101196.38;;;7.74;81.84
50434;BME280;36361;38.954;-9.002;2023-03-01T02:05:32;101192.81;;;7.73;82.04
50434;BME280;36361;38.954;-9.002;2023-03-01T02:06:49;101194.03;;;7.70;83.07
50434;BME280;36361;38.954;-9.002;2023-03-01T02:07:53;101185.06;;;7.70;82.00
50434;BME280;36361;38.954;-9.002;2023-03-01T02:09:02;101186.50;;;7.43;83.32
50434;BME280;36361;38.954;-9.002;2023-03-01T02:10:05;101181.44;;;7.40;84.15
50434;BME280;36361;38.954;-9.002;2023-03-01T02:11:08;101179.81;;;7.31;84.80
50434;BME280;36361;38.954;-9.002;2023-03-01T02:12:09;101166.13;;;7.32;85.72
50434;BME280;36361;38.954;-9.002;2023-03-01T02:13:11;101174.00;;;7.42;84.21
50434;BME280;36361;38.954;-9.002;2023-03-01T02:14:13;101171.94;;;7.59;82.17
50434;BME280;36361;38.954;-9.002;2023-03-01T02:15:15;101160.44;;;7.80;81.14
50434;BME280;36361;38.954;-9.002;2023-03-01T02:16:16;101159.94;;;7.76;80.18
50434;BME280;36361;38.954;-9.002;2023-03-01T02:17:19;101160.69;;;7.85;80.02
50434;BME280;36361;38.954;-9.002;2023-03-01T02:18:23;101160.34;;;7.88;79.44
50434;BME280;36361;38.954;-9.002;2023-03-01T02:19:52;101155.34;;;7.77;80.81
50434;BME280;36361;38.954;-9.002;2023-03-01T02:22:19;101153.31;;;7.79;80.71
50434;BME280;36361;38.954;-9.002;2023-03-01T02:23:22;101163.09;;;7.50;82.66
50434;BME280;36361;38.954;-9.002;2023-03-01T02:26:51;101157.38;;;7.45;82.96
50434;BME280;36361;38.954;-9.002;2023-03-01T02:29:00;101160.97;;;7.60;80.47
50434;BME280;36361;38.954;-9.002;2023-03-01T02:30:02;101160.84;;;7.54;81.41
50434;BME280;36361;38.954;-9.002;2023-03-01T02:31:06;101155.44;;;7.31;82.42
50434;BME280;36361;38.954;-9.002;2023-03-01T02:32:26;101160.88;;;7.31;82.57
50434;BME280;36361;38.954;-9.002;2023-03-01T02:33:28;101159.03;;;7.08;84.25
50434;BME280;36361;38.954;-9.002;2023-03-01T02:34:33;101154.28;;;7.33;82.42
50434;BME280;36361;38.954;-9.002;2023-03-01T02:35:37;101151.75;;;7.32;81.78
50434;BME280;36361;38.954;-9.002;2023-03-01T02:36:43;101146.81;;;7.12;83.78
50434;BME280;36361;38.954;-9.002;2023-03-01T02:37:46;101149.34;;;7.14;83.79
50434;BME280;36361;38.954;-9.002;2023-03-01T02:38:50;101149.38;;;7.29;82.86
50434;BME280;36361;38.954;-9.002;2023-03-01T02:40:02;101149.44;;;7.44;82.21
50434;BME280;36361;38.954;-9.002;2023-03-01T02:41:06;101140.16;;;7.38;81.13
50434;BME280;36361;38.954;-9.002;2023-03-01T02:42:15;101139.06;;;7.47;81.50
50434;BME280;36361;38.954;-9.002;2023-03-01T02:43:23;101149.50;;;7.35;82.16
50434;BME280;36361;38.954;-9.002;2023-03-01T02:44:26;101133.91;;;7.37;81.19
50434;BME280;36361;38.954;-9.002;2023-03-01T02:45:28;101138.63;;;7.21;82.01
50434;BME280;36361;38.954;-9.002;2023-03-01T02:46:29;101130.75;;;7.34;81.02
50434;BME280;36361;38.954;-9.002;2023-03-01T02:47:30;101134.75;;;7.38;80.65
50434;BME280;36361;38.954;-9.002;2023-03-01T02:48:49;101130.25;;;7.30;79.59
50434;BME280;36361;38.954;-9.002;2023-03-01T02:49:50;101129.00;;;7.18;79.89
50434;BME280;36361;38.954;-9.002;2023-03-01T02:52:30;101129.25;;;7.08;81.73
50434;BME280;36361;38.954;-9.002;2023-03-01T02:55:13;101131.06;;;7.16;79.94
50434;BME280;36361;38.954;-9.002;2023-03-01T02:56:15;101146.41;;;7.01;81.45
50434;BME280;36361;38.954;-9.002;2023-03-01T02:57:17;101139.97;;;6.79;84.16
50434;BME280;36361;38.954;-9.002;2023-03-01T02:58:20;101135.25;;;7.19;81.39
50434;BME280;36361;38.954;-9.002;2023-03-01T02:59:26;101131.78;;;7.33;80.86
50434;BME280;36361;38.954;-9.002;2023-03-01T03:00:37;101134.16;;;7.28;81.07
50434;BME280;36361;38.954;-9.002;2023-03-01T03:01:47;101130.69;;;7.19;80.94
50434;BME280;36361;38.954;-9.002;2023-03-01T03:02:53;101124.16;;;7.13;81.51
50434;BME280;36361;38.954;-9.002;2023-03-01T03:04:00;101122.50;;;7.27;79.87
50434;BME280;36361;38.954;-9.002;2023-03-01T03:05:09;101118.75;;;7.28;80.19
50434;BME280;36361;38.954;-9.002;2023-03-01T03:06:13;101121.28;;;7.30;79.00
50434;BME280;36361;38.954;-9.002;2023-03-01T03:07:16;101115.06;;;7.06;78.54
50434;BME280;36361;38.954;-9.002;2023-03-01T03:08:18;101114.75;;;7.01;78.68
50434;BME280;36361;38.954;-9.002;2023-03-01T03:09:25;101115.28;;;7.20;77.81
50434;BME280;36361;38.954;-9.002;2023-03-01T03:10:32;101112.06;;;7.24;76.80
50434;BME280;36361;38.954;-9.002;2023-03-01T03:11:33;101109.22;;;7.18;76.37
50434;BME280;36361;38.954;-9.002;2023-03-01T03:12:37;101106.72;;;7.31;73.77
50434;BME280;36361;38.954;-9.002;2023-03-01T03:13:40;101106.41;;;7.11;74.95
50434;BME280;36361;38.954;-9.002;2023-03-01T03:14:49;101098.94;;;7.13;73.91
50434;BME280;36361;38.954;-9.002;2023-03-01T03:15:51;101104.53;;;7.11;72.59
50434;BME280;36361;38.954;-9.002;2023-03-01T03:16:52;101102.19;;;7.08;73.64
50434;BME280;36361;38.954;-9.002;2023-03-01T03:17:56;101097.88;;;6.99;72.91
50434;BME280;36361;38.954;-9.002;2023-03-01T03:18:57;101102.00;;;7.33;71.98
50434;BME280;36361;38.954;-9.002;2023-03-01T03:20:07;101102.25;;;7.38;70.35
50434;BME280;36361;38.954;-9.002;2023-03-01T03:21:13;101093.97;;;7.54;69.44
50434;BME280;36361;38.954;-9.002;2023-03-01T03:22:14;101101.06;;;7.55;69.22
50434;BME280;36361;38.954;-9.002;2023-03-01T03:23:16;101088.63;;;7.46;68.89
50434;BME280;36361;38.954;-9.002;2023-03-01T03:24:17;101083.38;;;7.30;70.47
50434;BME280;36361;38.954;-9.002;2023-03-01T03:25:20;101076.38;;;7.21;71.50
50434;BME280;36361;38.954;-9.002;2023-03-01T03:26:23;101083.88;;;7.33;70.37
50434;BME280;36361;38.954;-9.002;2023-03-01T03:27:27;101087.50;;;7.26;70.79
50434;BME280;36361;38.954;-9.002;2023-03-01T03:28:29;101086.41;;;7.12;72.61
50434;BME280;36361;38.954;-9.002;2023-03-01T03:29:31;101080.53;;;7.08;72.43
50434;BME280;36361;38.954;-9.002;2023-03-01T03:30:37;101084.47;;;7.06;71.64
50434;BME280;36361;38.954;-9.002;2023-03-01T03:31:39;101084.75;;;7.11;69.95
50434;BME280;36361;38.954;-9.002;2023-03-01T03:32:44;101080.47;;;7.17;70.88
50434;BME280;36361;38.954;-9.002;2023-03-01T03:33:53;101076.22;;;6.99;73.53
50434;BME280;36361;38.954;-9.002;2023-03-01T03:34:55;101067.91;;;7.24;69.66
50434;BME280;36361;38.954;-9.002;2023-03-01T03:36:00;101068.16;;;7.14;70.70
50434;BME280;36361;38.954;-9.002;2023-03-01T03:37:06;101069.78;;;7.00;72.95
50434;BME280;36361;38.954;-9.002;2023-03-01T03:38:28;101072.13;;;7.03;71.91
50434;BME280;36361;38.954;-9.002;2023-03-01T03:39:29;101059.03;;;6.92;72.28
50434;BME280;36361;38.954;-9.002;2023-03-01T03:40:38;101073.84;;;7.04;71.85
50434;BME280;36361;38.954;-9.002;2023-03-01T03:41:40;101060.63;;;6.87;71.98
50434;BME280;36361;38.954;-9.002;2023-03-01T03:42:42;101066.28;;;6.77;72.15
50434;BME280;36361;38.954;-9.002;2023-03-01T03:43:44;101064.09;;;6.95;71.55
50434;BME280;36361;38.954;-9.002;2023-03-01T03:44:45;101069.34;;;7.11;70.05
50434;BME280;36361;38.954;-9.002;2023-03-01T03:45:49;101060.56;;;7.09;71.32
50434;BME280;36361;38.954;-9.002;2023-03-01T03:46:51;101064.09;;;6.95;71.60
50434;BME280;36361;38.954;-9.002;2023-03-01T03:47:53;101058.06;;;6.85;72.70
50434;BME280;36361;38.954;-9.002;2023-03-01T03:48:55;101063.34;;;7.01;73.37
50434;BME280;36361;38.954;-9.002;2023-03-01T03:49:57;101060.44;;;6.88;74.81
50434;BME280;36361;38.954;-9.002;2023-03-01T03:51:00;101058.56;;;6.66;76.12
50434;BME280;36361;38.954;-9.002;2023-03-01T03:52:01;101067.59;;;6.81;75.16
50434;BME280;36361;38.954;-9.002;2023-03-01T03:53:06;101061.94;;;6.68;76.92
50434;BME280;36361;38.954;-9.002;2023-03-01T03:54:08;101059.25;;;6.68;76.61
50434;BME280;36361;38.954;-9.002;2023-03-01T03:55:11;101067.38;;;6.68;76.61
50434;BME280;36361;38.954;-9.002;2023-03-01T03:56:13;101066.28;;;6.77;76.60
50434;BME280;36361;38.954;-9.002;2023-03-01T03:57:15;101068.66;;;6.72;77.25
50434;BME280;36361;38.954;-9.002;2023-03-01T03:58:19;101066.41;;;6.61;77.25
50434;BME280;36361;38.954;-9.002;2023-03-01T03:59:21;101065.41;;;6.53;76.72
50434;BME280;36361;38.954;-9.002;2023-03-01T04:00:22;101066.88;;;6.41;77.26
50434;BME280;36361;38.954;-9.002;2023-03-01T04:01:24;101057.50;;;6.52;77.31
50434;BME280;36361;38.954;-9.002;2023-03-01T04:02:26;101057.72;;;6.65;76.17
50434;BME280;36361;38.954;-9.002;2023-03-01T04:03:29;101052.31;;;6.65;74.53
50434;BME280;36361;38.954;-9.002;2023-03-01T04:04:31;101056.53;;;6.68;74.61
50434;BME280;36361;38.954;-9.002;2023-03-01T04:05:33;101059.59;;;6.88;73.96
50434;BME280;36361;38.954;-9.002;2023-03-01T04:06:35;101059.09;;;6.84;73.48
50434;BME280;36361;38.954;-9.002;2023-03-01T04:07:37;101058.94;;;6.63;75.08
50434;BME280;36361;38.954;-9.002;2023-03-01T04:08:39;101069.38;;;6.66;75.45
50434;BME280;36361;38.954;-9.002;2023-03-01T04:09:42;101066.72;;;6.57;75.74
50434;BME280;36361;38.954;-9.002;2023-03-01T04:10:46;101061.31;;;6.57;76.09
50434;BME280;36361;38.954;-9.002;2023-03-01T04:11:50;101073.94;;;6.65;76.17
50434;BME280;36361;38.954;-9.002;2023-03-01T04:12:55;101076.75;;;6.95;73.76
50434;BME280;36361;38.954;-9.002;2023-03-01T04:13:58;101069.72;;;7.08;72.85
50434;BME280;36361;38.954;-9.002;2023-03-01T04:15:02;101071.13;;;6.81;73.18
50434;BME280;36361;38.954;-9.002;2023-03-01T04:16:13;101075.16;;;6.63;76.55
50434;BME280;36361;38.954;-9.002;2023-03-01T04:17:15;101079.97;;;6.52;77.33
50434;BME280;36361;38.954;-9.002;2023-03-01T04:18:17;101073.59;;;6.45;77.87
50434;BME280;36361;38.954;-9.002;2023-03-01T04:19:20;101075.16;;;6.63;76.75
50434;BME280;36361;38.954;-9.002;2023-03-01T04:20:28;101069.25;;;6.82;75.38
50434;BME280;36361;38.954;-9.002;2023-03-01T04:21:30;101077.91;;;6.54;77.03
50434;BME280;36361;38.954;-9.002;2023-03-01T04:22:32;101069.75;;;6.63;78.23
50434;BME280;36361;38.954;-9.002;2023-03-01T04:23:34;101072.03;;;6.74;77.29
50434;BME280;36361;38.954;-9.002;2023-03-01T04:24:36;101073.13;;;6.42;78.78
50434;BME280;36361;38.954;-9.002;2023-03-01T04:25:45;101073.69;;;6.29;81.50
50434;BME280;36361;38.954;-9.002;2023-03-01T04:26:47;101069.38;;;6.43;81.08
50434;BME280;36361;38.954;-9.002;2023-03-01T04:27:49;101083.41;;;6.38;79.99
50434;BME280;36361;38.954;-9.002;2023-03-01T04:28:51;101080.91;;;6.37;81.16
50434;BME280;36361;38.954;-9.002;2023-03-01T04:29:55;101076.66;;;6.42;80.49
50434;BME280;36361;38.954;-9.002;2023-03-01T04:30:58;101082.72;;;6.44;80.25
50434;BME280;36361;38.954;-9.002;2023-03-01T04:32:02;101083.03;;;6.49;78.96
50434;BME280;36361;38.954;-9.002;2023-03-01T04:33:06;101079.22;;;6.36;78.74
50434;BME280;36361;38.954;-9.002;2023-03-01T04:34:08;101079.97;;;6.52;76.94
50434;BME280;36361;38.954;-9.002;2023-03-01T04:35:10;101091.84;;;6.43;77.17
50434;BME280;36361;38.954;-9.002;2023-03-01T04:36:14;101088.81;;;6.38;77.81
50434;BME280;36361;38.954;-9.002;2023-03-01T04:37:15;101098.84;;;6.61;77.86
50434;BME280;36361;38.954;-9.002;2023-03-01T04:38:19;101099.81;;;6.68;74.86
50434;BME280;36361;38.954;-9.002;2023-03-01T04:39:20;101105.09;;;6.61;74.45
50434;BME280;36361;38.954;-9.002;2023-03-01T04:40:23;101102.00;;;6.41;76.62
50434;BME280;36361;38.954;-9.002;2023-03-01T04:41:25;101095.31;;;6.29;78.14
50434;BME280;36361;38.954;-9.002;2023-03-01T04:42:29;101098.25;;;6.11;81.56
50434;BME280;36361;38.954;-9.002;2023-03-01T04:43:31;101103.66;;;6.11;80.91
50434;BME280;36361;38.954;-9.002;2023-03-01T04:44:34;101107.38;;;6.10;81.46
50434;BME280;36361;38.954;-9.002;2023-03-01T04:45:37;101105.41;;;6.35;78.50
50434;BME280;36361;38.954;-9.002;2023-03-01T04:46:49;101114.09;;;6.53;76.64
50434;BME280;36361;38.954;-9.002;2023-03-01T04:47:51;101108.56;;;6.47;76.29
50434;BME280;36361;38.954;-9.002;2023-03-01T04:48:55;101109.84;;;6.28;75.22
50434;BME280;36361;38.954;-9.002;2023-03-01T04:49:57;101112.97;;;6.09;77.76
50434;BME280;36361;38.954;-9.002;2023-03-01T04:50:59;101115.09;;;6.21;78.58
50434;BME280;36361;38.954;-9.002;2023-03-01T04:52:02;101108.59;;;6.08;78.76
50434;BME280;36361;38.954;-9.002;2023-03-01T04:53:04;101111.63;;;6.13;75.34
50434;BME280;36361;38.954;-9.002;2023-03-01T04:54:05;101115.53;;;6.41;71.81
50434;BME280;36361;38.954;-9.002;2023-03-01T04:55:09;101117.78;;;6.61;70.07
50434;BME280;36361;38.954;-9.002;2023-03-01T04:56:12;101116.47;;;6.79;70.18
50434;BME280;36361;38.954;-9.002;2023-03-01T04:57:18;101115.50;;;6.95;70.00
50434;BME280;36361;38.954;-9.002;2023-03-01T04:58:22;101123.75;;;6.79;70.14
50434;BME280;36361;38.954;-9.002;2023-03-01T04:59:24;101117.69;;;6.46;70.91
50434;BME280;36361;38.954;-9.002;2023-03-01T05:00:25;101120.66;;;6.28;76.17
50434;BME280;36361;38.954;-9.002;2023-03-01T05:01:27;101124.19;;;6.28;76.24
50434;BME280;36361;38.954;-9.002;2023-03-01T05:02:28;101122.69;;;6.26;76.65
50434;BME280;36361;38.954;-9.002;2023-03-01T05:03:30;101112.59;;;6.12;78.28
50434;BME280;36361;38.954;-9.002;2023-03-01T05:04:32;101117.72;;;6.07;79.25
50434;BME280;36361;38.954;-9.002;2023-03-01T05:05:38;101116.44;;;6.25;77.95
50434;BME280;36361;38.954;-9.002;2023-03-01T05:06:39;101123.69;;;6.33;76.89
50434;BME280;36361;38.954;-9.002;2023-03-01T05:07:41;101122.28;;;6.37;77.08
50434;BME280;36361;38.954;-9.002;2023-03-01T05:08:44;101121.38;;;6.22;76.80
50434;BME280;36361;38.954;-9.002;2023-03-01T05:09:46;101115.69;;;6.09;77.45
50434;BME280;36361;38.954;-9.002;2023-03-01T05:10:50;101119.03;;;6.11;78.94
50434;BME280;36361;38.954;-9.002;2023-03-01T05:11:52;101114.38;;;5.96;79.82
50434;BME280;36361;38.954;-9.002;2023-03-01T05:12:54;101115.06;;;5.82;80.09
50434;BME280;36361;38.954;-9.002;2023-03-01T05:13:58;101115.41;;;5.79;79.82
50434;BME280;36361;38.954;-9.002;2023-03-01T05:15:04;101113.38;;;5.81;79.71
50434;BME280;36361;38.954;-9.002;2023-03-01T05:16:08;101115.06;;;5.82;81.31
50434;BME280;36361;38.954;-9.002;2023-03-01T05:17:13;101113.53;;;5.88;79.61
50434;BME280;36361;38.954;-9.002;2023-03-01T05:18:15;101110.53;;;5.75;81.98
50434;BME280;36361;38.954;-9.002;2023-03-01T05:19:17;101116.72;;;5.99;80.61
50434;BME280;36361;38.954;-9.002;2023-03-01T05:20:28;101118.06;;;6.04;79.52
50434;BME280;36361;38.954;-9.002;2023-03-01T05:21:32;101120.06;;;6.10;78.71
50434;BME280;36361;38.954;-9.002;2023-03-01T05:22:35;101122.91;;;6.16;77.59
50434;BME280;36361;38.954;-9.002;2023-03-01T05:23:44;101119.75;;;6.05;79.14
50434;BME280;36361;38.954;-9.002;2023-03-01T05:24:49;101119.75;;;6.05;79.93
50434;BME280;36361;38.954;-9.002;2023-03-01T05:25:52;101116.75;;;5.83;80.18
50434;BME280;36361;38.954;-9.002;2023-03-01T05:26:54;101122.22;;;5.67;81.64
50434;BME280;36361;38.954;-9.002;2023-03-01T05:28:02;101122.22;;;5.67;81.19
50434;BME280;36361;38.954;-9.002;2023-03-01T05:29:07;101108.81;;;5.82;79.75
50434;BME280;36361;38.954;-9.002;2023-03-01T05:30:21;101118.78;;;5.81;80.26
50434;BME280;36361;38.954;-9.002;2023-03-01T05:31:24;101110.53;;;5.66;81.38
50434;BME280;36361;38.954;-9.002;2023-03-01T05:32:26;101114.28;;;5.57;82.13
50434;BME280;36361;38.954;-9.002;2023-03-01T05:33:28;101110.22;;;5.69;80.60
50434;BME280;36361;38.954;-9.002;2023-03-01T05:34:35;101110.38;;;5.76;79.54
50434;BME280;36361;38.954;-9.002;2023-03-01T05:35:37;101110.53;;;5.66;79.98
50434;BME280;36361;38.954;-9.002;2023-03-01T05:36:39;101110.00;;;5.95;77.78
50434;BME280;36361;38.954;-9.002;2023-03-01T05:37:47;101108.31;;;5.94;74.18
50434;BME280;36361;38.954;-9.002;2023-03-01T05:38:49;101105.22;;;6.06;72.39
50434;BME280;36361;38.954;-9.002;2023-03-01T05:39:51;101106.66;;;6.24;69.95
50434;BME280;36361;38.954;-9.002;2023-03-01T05:40:54;101105.16;;;6.22;68.65
50434;BME280;36361;38.954;-9.002;2023-03-01T05:41:58;101111.28;;;6.39;64.60
50434;BME280;36361;38.954;-9.002;2023-03-01T05:43:01;101100.25;;;6.48;61.49